Airfield :
LOGIN :

Register | Disclaimer

   EN    FR    IT 

 










Legend :    VFR   Marginal VFR   IFR   Intensive IFR   Very Intensive IFR
Visi :
Ceiling :
>= 8 km
>= 3000ft
5 to 8 km
1000 to 3000 ft
1500m to 5 km
500 to 1000 ft
800 to 1500m
200 to 500 ft
< 800m
< 200 ft
Symbols :   Thunderstorms  Fog  Heavy snow  Heavy precipitations  Wind > 20 kt
SIGMETs :     Misc.  Thunderstorms  Icing  Turbulence  Mountain Waves  Volcanic Ashes







- Airport Elevation : 20 ft


EBFN - Koksijde

CURRENT METAR :
  • 220225Z AUTO 06005KT 6000 NCD 09/05 Q1011 WHT

EXPIRED METARs :
  • 220155Z AUTO 05004KT 6000 NCD 10/06 Q1011 WHT
  • 220143Z AUTO 05003KT 5000 NCD 09/06 Q1011 WHT
  • 220125Z AUTO 06003KT 4700 BR NCD 09/06 Q1011 GRN
  • 220113Z AUTO 06003KT 4900 NCD 09/06 Q1012 GRN
  • 220055Z AUTO 06004KT 5000 NCD 10/06 Q1012 WHT
  • 220047Z AUTO 07004KT 4900 NCD 09/06 Q1012 GRN
  • 220025Z AUTO 06004KT 6000 NCD 10/06 Q1012 WHT
  • 220019Z AUTO 06004KT 1900 NCD 10/06 Q1012 YLO
  • 212355Z AUTO 05005KT 7000 NCD 11/06 Q1013 WHT

TAF TAF EBFN
Valid from the 21 at 19:00 until the 22 at 07:00 UTC


211541Z 2119/2207 04010KT 9999 SKC
BECMG 2200/2202 10008KT
No reported NOTAMs for that airfield.



MET'MAP, your aeronautical weather chart ! - Copyright ORBIFLY December 2007 - Disclaimer

ORBIFLY MET'MAP TEAM :

Programming & Development : Alexandra Zaïnal
Concept & Development : Baudouin d'Aumeries
Co-Development & Prog : Marc-Olivier Méhu
Technical & hardware support : Manuel Goepfert

Contact : metmap@orbifly.com




SOURCES & CREDITS :

   NOAA